Time;durP1;ratioP1;P1;durP2;ratioP2;P2;SDS_P1;SDS_P2;PMS_P1;PMS_P2;Temp;Humidity;BMP_temperature;BMP_pressure;BME280_temperature;BME280_humidity;BME280_pressure;Samples;Min_cycle;Max_cycle;Signal;HPM_P1;HPM_P2
2023/04/06 00:00:04;;;;;;;7.82;4.85;;;;;;;9.03;45.64;96555.25;5025674;28;20085;-47
2023/04/06 00:02:33;;;;;;;11.00;5.43;;;;;;;9.08;46.13;96555.69;5025892;28;20080;-45
2023/04/06 00:05:01;;;;;;;9.93;5.18;;;;;;;9.07;45.80;96550.56;5025590;28;20556;-49
2023/04/06 00:07:30;;;;;;;11.68;4.85;;;;;;;9.13;46.09;96553.50;5027825;28;20091;-46
2023/04/06 00:09:58;;;;;;;8.90;5.60;;;;;;;9.07;47.11;96551.41;5027816;28;20088;-50
2023/04/06 00:12:27;;;;;;;10.82;5.70;;;;;;;9.11;46.34;96549.31;5024473;28;20087;-46
2023/04/06 00:14:55;;;;;;;13.35;6.78;;;;;;;8.81;46.68;96551.03;5032514;28;20514;-51
2023/04/06 00:17:25;;;;;;;10.38;5.35;;;;;;;8.93;45.69;96539.44;5028052;28;20085;-50
2023/04/06 00:19:53;;;;;;;9.70;5.55;;;;;;;8.81;45.30;96540.50;5026172;28;20081;-53
2023/04/06 00:22:22;;;;;;;9.35;5.70;;;;;;;8.92;45.36;96543.03;5021545;28;20092;-48
2023/04/06 00:24:50;;;;;;;11.20;5.53;;;;;;;8.98;45.91;96552.19;5024985;28;20088;-48
2023/04/06 00:27:19;;;;;;;10.82;5.25;;;;;;;9.01;46.28;96552.75;5026224;28;20087;-53
2023/04/06 00:29:47;;;;;;;10.00;4.80;;;;;;;8.97;46.40;96546.09;5024015;28;20081;-46
2023/04/06 00:32:16;;;;;;;9.57;5.35;;;;;;;8.82;47.44;96551.84;5025675;28;21082;-47
2023/04/06 00:34:46;;;;;;;10.93;5.50;;;;;;;8.76;46.37;96553.19;5027664;28;20080;-48
2023/04/06 00:37:14;;;;;;;9.35;5.15;;;;;;;8.62;46.04;96551.75;5024154;28;20088;-47
2023/04/06 00:39:43;;;;;;;8.38;5.10;;;;;;;8.58;45.80;96552.97;5026173;28;20089;-47
2023/04/06 00:42:13;;;;;;;10.35;5.53;;;;;;;8.36;46.72;96550.44;5030100;28;20603;-45
2023/04/06 00:44:42;;;;;;;9.40;5.95;;;;;;;8.46;45.73;96557.44;5024390;28;20077;-45
2023/04/06 00:47:10;;;;;;;10.25;5.95;;;;;;;8.46;45.49;96546.13;5024987;28;20091;-46
2023/04/06 00:49:39;;;;;;;9.77;6.10;;;;;;;8.47;45.49;96547.81;5021901;28;20088;-49
2023/04/06 00:52:09;;;;;;;11.73;5.82;;;;;;;8.52;45.23;96553.50;5027876;28;20092;-46
2023/04/06 00:54:37;;;;;;;9.70;5.53;;;;;;;8.41;45.12;96553.56;5025393;28;20492;-46
2023/04/06 00:57:06;;;;;;;11.88;5.78;;;;;;;8.42;45.02;96550.78;5027120;28;20524;-46
2023/04/06 00:59:35;;;;;;;9.77;5.60;;;;;;;8.49;45.93;96551.13;5023505;28;20082;-46
2023/04/06 01:02:03;;;;;;;10.98;6.03;;;;;;;8.53;45.87;96547.25;5022584;28;20533;-47
2023/04/06 01:04:32;;;;;;;16.08;6.47;;;;;;;8.59;45.96;96549.38;5029518;28;20095;-45
2023/04/06 01:07:01;;;;;;;13.23;6.45;;;;;;;8.61;45.90;96536.13;5028253;28;20053;-48
2023/04/06 01:09:31;;;;;;;12.82;5.70;;;;;;;8.62;46.15;96545.66;5024337;28;20406;-47
2023/04/06 01:12:00;;;;;;;10.57;5.85;;;;;;;8.62;46.34;96540.41;5035730;28;20529;-48
2023/04/06 01:14:29;;;;;;;11.95;6.65;;;;;;;8.57;46.85;96543.44;5029349;28;20085;-49
2023/04/06 01:16:59;;;;;;;14.48;7.18;;;;;;;8.53;47.58;96550.75;5026952;28;20077;-48
2023/04/06 01:19:29;;;;;;;11.80;6.43;;;;;;;8.51;47.27;96549.19;5028683;28;20779;-50
2023/04/06 01:21:57;;;;;;;13.20;6.57;;;;;;;8.41;46.83;96546.50;5030602;28;20073;-48
2023/04/06 01:24:27;;;;;;;10.65;6.40;;;;;;;8.01;48.19;96546.34;5033669;28;20093;-47
2023/04/06 01:26:56;;;;;;;13.55;6.40;;;;;;;7.99;48.30;96537.75;5023855;28;20088;-54
2023/04/06 01:29:24;;;;;;;11.55;6.90;;;;;;;7.80;48.17;96536.63;5022747;28;20085;-49
2023/04/06 01:31:53;;;;;;;13.48;6.18;;;;;;;7.92;48.06;96540.06;5029206;28;20097;-48
2023/04/06 01:34:21;;;;;;;12.45;6.57;;;;;;;7.81;48.52;96543.56;5026730;28;20085;-48
2023/04/06 01:36:50;;;;;;;13.30;7.05;;;;;;;7.81;48.28;96537.47;5029251;28;20056;-45
2023/04/06 01:39:18;;;;;;;20.02;7.90;;;;;;;8.09;48.58;96539.50;5034347;28;20101;-51
2023/04/06 01:41:48;;;;;;;11.77;6.95;;;;;;;7.93;49.14;96538.25;5027590;28;20539;-49
2023/04/06 01:44:18;;;;;;;10.05;5.97;;;;;;;7.78;49.14;96540.38;5030446;28;20689;-49
2023/04/06 01:46:46;;;;;;;11.43;6.32;;;;;;;7.87;49.11;96534.34;5031871;28;20227;-53
2023/04/06 01:49:15;;;;;;;11.30;6.57;;;;;;;8.01;48.28;96531.41;5028288;28;20134;-51
2023/04/06 01:51:44;;;;;;;17.38;6.40;;;;;;;8.09;47.70;96523.75;5029316;28;20088;-49
2023/04/06 01:54:12;;;;;;;13.23;6.85;;;;;;;8.01;48.16;96527.94;5029011;28;20085;-44
2023/04/06 01:56:41;;;;;;;10.68;6.32;;;;;;;8.06;48.24;96529.25;5028172;28;20081;-49
2023/04/06 01:59:11;;;;;;;10.65;6.40;;;;;;;7.98;49.21;96530.81;5027664;28;20085;-49
2023/04/06 02:01:40;;;;;;;15.35;6.07;;;;;;;7.56;51.60;96528.13;5029078;28;20107;-50
2023/04/06 02:04:08;;;;;;;12.45;6.07;;;;;;;7.78;51.22;96530.69;5027845;28;20085;-46
2023/04/06 02:06:36;;;;;;;16.80;6.47;;;;;;;7.72;50.41;96523.31;5027739;28;20084;-51
2023/04/06 02:09:05;;;;;;;13.38;6.75;;;;;;;7.82;49.47;96518.97;5032730;28;20080;-47
2023/04/06 02:11:34;;;;;;;15.27;6.72;;;;;;;7.74;49.10;96526.66;5029044;28;20089;-52
2023/04/06 02:14:02;;;;;;;17.75;7.22;;;;;;;7.26;51.05;96523.56;5031388;28;20089;-49
2023/04/06 02:16:32;;;;;;;11.98;6.10;;;;;;;7.13;52.37;96521.09;5033217;28;20564;-46
2023/04/06 02:19:00;;;;;;;13.63;7.43;;;;;;;7.58;50.97;96518.34;5026559;28;20080;-49
2023/04/06 02:21:29;;;;;;;12.80;6.95;;;;;;;7.27;52.92;96522.63;5028568;28;20076;-46
2023/04/06 02:23:58;;;;;;;12.20;6.97;;;;;;;7.21;53.97;96528.34;5025684;28;20064;-50
2023/04/06 02:26:26;;;;;;;13.40;6.93;;;;;;;7.44;53.04;96523.91;5034759;28;20482;-47
2023/04/06 02:28:55;;;;;;;17.90;7.22;;;;;;;7.57;51.88;96520.16;5025595;28;20081;-49
2023/04/06 02:31:23;;;;;;;14.10;7.18;;;;;;;7.44;52.38;96522.09;5023007;28;20077;-51
2023/04/06 02:33:53;;;;;;;13.93;7.25;;;;;;;7.42;52.48;96525.78;5022822;28;20088;-48
2023/04/06 02:36:21;;;;;;;16.00;7.57;;;;;;;7.27;52.50;96520.00;5023555;28;20085;-47
2023/04/06 02:38:50;;;;;;;13.00;7.53;;;;;;;7.26;53.48;96521.78;5020742;28;20081;-50
2023/04/06 02:41:18;;;;;;;11.70;7.20;;;;;;;7.53;54.11;96517.88;5021078;28;20092;-47
2023/04/06 02:43:46;;;;;;;10.75;6.43;;;;;;;7.24;53.13;96521.06;5021866;28;20121;-48
2023/04/06 02:46:15;;;;;;;16.60;6.10;;;;;;;7.56;52.32;96521.09;5022883;28;20084;-49
2023/04/06 02:48:43;;;;;;;8.73;6.03;;;;;;;7.56;51.20;96521.09;5021767;28;20100;-50
2023/04/06 02:51:13;;;;;;;13.63;6.88;;;;;;;7.60;50.79;96516.44;5028685;28;20061;-48
2023/04/06 02:53:41;;;;;;;12.52;6.22;;;;;;;7.47;51.47;96521.03;5025142;28;20171;-47
2023/04/06 02:56:10;;;;;;;12.88;7.50;;;;;;;7.53;50.96;96523.13;5027950;28;20072;-48
2023/04/06 02:58:38;;;;;;;12.85;7.45;;;;;;;7.56;49.93;96517.63;5024280;28;20085;-45
2023/04/06 03:01:07;;;;;;;12.65;6.50;;;;;;;7.58;49.45;96518.34;5027279;28;20077;-47
2023/04/06 03:03:35;;;;;;;13.27;6.88;;;;;;;7.46;49.84;96514.09;5026217;28;20085;-45
2023/04/06 03:06:04;;;;;;;14.23;7.10;;;;;;;7.50;50.25;96515.50;5036056;28;20532;-47
2023/04/06 03:08:34;;;;;;;17.20;7.05;;;;;;;7.37;50.78;96520.94;5025195;28;20084;-46
2023/04/06 03:11:02;;;;;;;13.57;7.45;;;;;;;7.07;52.50;96521.56;5035120;28;20091;-48
2023/04/06 03:13:31;;;;;;;14.65;7.47;;;;;;;7.35;51.92;96522.84;5024829;28;20073;-45
2023/04/06 03:15:59;;;;;;;14.13;7.28;;;;;;;7.50;51.80;96518.13;5019769;28;20085;-51
2023/04/06 03:18:28;;;;;;;12.18;7.22;;;;;;;7.21;53.41;96512.63;5020851;28;20642;-47
2023/04/06 03:20:56;;;;;;;11.45;6.40;;;;;;;7.12;54.35;96514.16;5025814;28;20077;-48
2023/04/06 03:23:25;;;;;;;13.77;7.10;;;;;;;7.23;52.52;96514.16;5021598;28;20093;-48
2023/04/06 03:25:54;;;;;;;12.40;7.18;;;;;;;7.15;52.09;96516.53;5019241;28;20159;-48
2023/04/06 03:28:23;;;;;;;12.98;7.55;;;;;;;6.82;53.50;96522.69;5029107;28;20089;-52
2023/04/06 03:30:51;;;;;;;11.43;7.32;;;;;;;6.97;54.00;96518.00;5023137;28;20073;-50
2023/04/06 03:33:20;;;;;;;15.80;7.60;;;;;;;7.12;52.84;96520.28;5019289;28;20092;-55
2023/04/06 03:35:48;;;;;;;11.60;7.13;;;;;;;6.82;52.58;96525.31;5024037;28;20060;-48
2023/04/06 03:38:17;;;;;;;12.30;7.65;;;;;;;7.03;53.06;96517.53;5019577;28;20076;-45
2023/04/06 03:40:45;;;;;;;17.40;7.80;;;;;;;6.88;53.07;96524.78;5030892;28;20150;-47
2023/04/06 03:43:15;;;;;;;12.43;7.07;;;;;;;6.95;52.85;96519.91;5029966;28;20469;-51
2023/04/06 03:45:43;;;;;;;17.08;7.30;;;;;;;7.07;52.17;96530.28;5024396;28;20091;-48
2023/04/06 03:48:12;;;;;;;10.85;6.60;;;;;;;6.97;51.94;96533.75;5028996;28;20092;-49
2023/04/06 03:50:40;;;;;;;11.70;6.93;;;;;;;6.95;52.09;96535.63;5029847;28;20081;-46
2023/04/06 03:53:08;;;;;;;13.70;7.50;;;;;;;6.98;52.70;96530.16;5027077;28;20668;-47
2023/04/06 03:55:37;;;;;;;14.27;8.07;;;;;;;6.46;55.20;96537.66;5026023;28;20088;-51
2023/04/06 03:58:05;;;;;;;11.20;6.95;;;;;;;6.55;56.74;96538.75;5020078;28;20093;-46
2023/04/06 04:00:35;;;;;;;15.85;7.18;;;;;;;5.76;60.61;96543.75;5016701;28;20085;-49
2023/04/06 04:03:04;;;;;;;15.23;7.45;;;;;;;6.39;57.76;96546.94;5020239;28;20085;-47
2023/04/06 04:05:32;;;;;;;11.23;7.15;;;;;;;6.66;55.59;96541.38;5024559;28;21706;-52
2023/04/06 04:08:01;;;;;;;15.68;7.78;;;;;;;6.66;54.32;96546.63;5023260;28;20157;-46
2023/04/06 04:10:29;;;;;;;14.27;7.63;;;;;;;6.61;52.91;96544.34;5024934;28;20081;-46
2023/04/06 04:12:58;;;;;;;13.88;7.90;;;;;;;6.80;52.25;96538.50;5019501;28;20080;-47
2023/04/06 04:15:26;;;;;;;14.07;7.43;;;;;;;6.87;51.56;96547.56;5020622;28;20710;-50
2023/04/06 04:17:56;;;;;;;12.18;7.45;;;;;;;6.95;51.33;96551.38;5020005;28;20096;-48
2023/04/06 04:20:25;;;;;;;13.73;7.95;;;;;;;6.93;51.55;96551.50;5021567;28;20089;-50
2023/04/06 04:22:53;;;;;;;11.43;7.35;;;;;;;6.85;52.60;96553.91;5027094;28;20080;-47
2023/04/06 04:25:21;;;;;;;17.00;7.90;;;;;;;7.05;52.01;96552.31;5029566;28;20133;-45
2023/04/06 04:27:50;;;;;;;14.63;7.63;;;;;;;6.77;53.25;96556.25;5033682;28;20478;-45
2023/04/06 04:30:19;;;;;;;13.23;7.70;;;;;;;6.87;51.96;96565.09;5032368;28;20081;-45
2023/04/06 04:32:47;;;;;;;15.30;7.78;;;;;;;6.78;52.02;96556.16;5032677;28;20085;-47
2023/04/06 04:35:17;;;;;;;18.08;8.20;;;;;;;6.98;51.63;96557.19;5030873;28;20088;-48
2023/04/06 04:37:46;;;;;;;15.60;7.68;;;;;;;6.69;51.50;96561.28;5030870;28;20100;-45
2023/04/06 04:40:15;;;;;;;13.48;7.82;;;;;;;6.50;52.78;96560.03;5030758;28;20089;-48
2023/04/06 04:42:44;;;;;;;14.65;7.68;;;;;;;6.76;53.29;96555.44;5034861;28;20092;-46
2023/04/06 04:45:13;;;;;;;16.83;7.93;;;;;;;6.89;52.58;96556.16;5026858;28;20053;-47
2023/04/06 04:47:41;;;;;;;11.73;7.78;;;;;;;7.02;51.70;96557.78;5034779;28;20072;-46
2023/04/06 04:50:10;;;;;;;13.55;7.90;;;;;;;7.07;51.82;96555.66;5034289;28;20533;-46
2023/04/06 04:52:40;;;;;;;14.98;8.20;;;;;;;7.11;50.88;96555.28;5028785;28;20077;-45
2023/04/06 04:55:09;;;;;;;13.88;7.82;;;;;;;7.10;50.24;96560.66;5036954;28;20076;-46
2023/04/06 04:57:37;;;;;;;12.10;6.63;;;;;;;6.98;49.10;96570.31;5029211;28;20088;-46
2023/04/06 05:00:07;;;;;;;15.23;7.25;;;;;;;6.65;50.66;96566.75;5035652;28;20103;-47
2023/04/06 05:02:36;;;;;;;14.68;7.43;;;;;;;6.61;51.70;96574.97;5036659;28;20073;-47
2023/04/06 05:05:05;;;;;;;14.07;7.90;;;;;;;6.93;51.54;96563.78;5035737;28;20073;-44
2023/04/06 05:07:33;;;;;;;12.85;8.07;;;;;;;7.20;51.78;96569.47;5037716;28;20072;-46
2023/04/06 05:10:04;;;;;;;15.70;9.15;;;;;;;7.69;50.18;96556.84;5068372;28;20064;-47
2023/04/06 05:12:32;;;;;;;;;;;;;;;7.92;48.28;96555.81;5030615;28;20100;-46
2023/04/06 05:15:01;;;;;;;18.83;9.43;;;;;;;7.46;48.98;96559.53;5033236;28;19964;-48
2023/04/06 05:17:29;;;;;;;16.73;9.27;;;;;;;7.33;49.18;96554.44;5030316;28;20077;-47
2023/04/06 05:19:57;;;;;;;20.02;9.63;;;;;;;6.79;51.59;96552.56;5028677;28;20080;-46
2023/04/06 05:22:26;;;;;;;16.02;8.90;;;;;;;7.30;51.77;96559.94;5031313;28;20537;-50
2023/04/06 05:24:54;;;;;;;21.35;9.70;;;;;;;7.03;51.57;96556.88;5034972;28;20083;-47
2023/04/06 05:27:24;;;;;;;20.25;9.88;;;;;;;7.84;50.37;96556.44;5034339;28;20080;-47
2023/04/06 05:29:53;;;;;;;20.40;9.63;;;;;;;7.96;49.54;96554.59;5033952;28;20081;-47
2023/04/06 05:32:25;;;;;;;17.73;9.18;;;;;;;7.99;49.54;96556.97;5030652;28;20663;-47
2023/04/06 05:34:53;;;;;;;15.02;7.75;;;;;;;7.76;50.08;96569.34;5029276;28;20087;-45
2023/04/06 05:37:22;;;;;;;13.23;7.30;;;;;;;7.73;49.94;96556.47;5030850;28;20080;-46
2023/04/06 05:39:50;;;;;;;12.93;6.97;;;;;;;7.92;49.68;96558.44;5029474;28;20524;-45
2023/04/06 05:42:18;;;;;;;16.30;7.38;;;;;;;7.93;49.93;96559.28;5038147;28;20160;-46
2023/04/06 05:44:49;;;;;;;13.07;8.50;;;;;;;7.71;50.57;96566.28;5030820;28;20096;-45
2023/04/06 05:47:17;;;;;;;14.75;8.23;;;;;;;8.12;50.21;96562.06;5040487;28;20091;-46
2023/04/06 05:49:45;;;;;;;15.52;8.63;;;;;;;8.39;50.13;96560.72;5029783;28;20497;-45
2023/04/06 05:52:14;;;;;;;15.80;9.52;;;;;;;8.28;50.40;96564.22;5045144;28;20076;-50
2023/04/06 05:54:42;;;;;;;20.67;9.10;;;;;;;8.29;50.51;96566.75;5033938;28;20088;-45
2023/04/06 05:57:11;;;;;;;19.02;9.13;;;;;;;8.52;50.82;96562.19;5041774;28;20087;-49
2023/04/06 05:59:39;;;;;;;20.13;10.18;;;;;;;8.53;51.47;96565.66;5038891;28;20123;-48
2023/04/06 06:02:09;;;;;;;18.48;8.57;;;;;;;8.37;52.88;96573.16;5044741;28;20088;-47
2023/04/06 06:04:38;;;;;;;16.02;8.25;;;;;;;8.90;51.58;96567.78;5038200;28;20633;-45
2023/04/06 06:07:06;;;;;;;19.50;9.18;;;;;;;9.30;50.95;96559.94;5037162;28;20084;-51
2023/04/06 06:09:34;;;;;;;14.25;8.70;;;;;;;9.62;49.28;96564.97;5033680;28;20474;-48
2023/04/06 06:12:03;;;;;;;15.02;8.38;;;;;;;9.60;49.54;96566.94;5028882;28;20080;-46
2023/04/06 06:14:31;;;;;;;13.85;8.40;;;;;;;9.94;48.71;96569.16;5030604;28;20084;-49
2023/04/06 06:17:00;;;;;;;15.20;7.88;;;;;;;9.97;49.12;96563.63;5040710;28;20073;-46
2023/04/06 06:19:29;;;;;;;17.05;8.63;;;;;;;10.30;48.59;96561.59;5033057;28;20092;-48
2023/04/06 06:21:58;;;;;;;14.70;8.10;;;;;;;10.48;48.59;96553.78;5034510;28;20099;-46
2023/04/06 06:24:26;;;;;;;11.98;7.80;;;;;;;10.80;47.27;96551.59;5034890;28;20104;-45
2023/04/06 06:26:58;;;;;;;15.80;8.45;;;;;;;10.16;47.12;96563.63;5028609;28;20169;-50
2023/04/06 06:29:27;;;;;;;10.90;7.03;;;;;;;10.25;48.28;96559.31;5038164;28;20092;-50
2023/04/06 06:31:55;;;;;;;11.32;6.63;;;;;;;10.73;47.06;96560.25;5033031;28;20084;-50
2023/04/06 06:34:24;;;;;;;11.77;6.97;;;;;;;11.27;46.14;96554.19;5036084;28;20088;-46
2023/04/06 06:36:55;;;;;;;14.60;6.63;;;;;;;11.49;45.70;96558.25;5033364;28;20088;-46
2023/04/06 06:39:23;;;;;;;12.98;7.22;;;;;;;11.55;46.00;96562.13;5026622;28;20091;-48
2023/04/06 06:41:51;;;;;;;9.80;6.68;;;;;;;11.87;45.58;96559.00;5040318;28;20127;-47
2023/04/06 06:44:20;;;;;;;13.63;6.72;;;;;;;11.58;45.22;96561.81;5033164;28;20081;-48
2023/04/06 06:46:48;;;;;;;10.70;7.20;;;;;;;10.37;46.81;96570.59;5030738;28;20095;-49
2023/04/06 06:49:17;;;;;;;9.48;6.53;;;;;;;10.92;46.46;96568.09;5026231;28;20088;-51
2023/04/06 06:51:46;;;;;;;10.63;6.90;;;;;;;10.89;46.63;96565.75;5037961;28;20076;-47
2023/04/06 06:54:16;;;;;;;14.35;7.30;;;;;;;10.79;46.18;96565.78;5028714;28;20087;-46
2023/04/06 06:56:44;;;;;;;11.32;7.10;;;;;;;11.01;46.11;96575.16;5034336;28;20096;-49
2023/04/06 06:59:13;;;;;;;10.32;7.00;;;;;;;10.93;46.23;96567.94;5035486;28;20077;-48
2023/04/06 07:01:41;;;;;;;9.57;6.25;;;;;;;12.02;44.30;96565.44;5038076;28;20088;-49
2023/04/06 07:04:10;;;;;;;10.43;6.50;;;;;;;10.91;46.30;96571.72;5034446;28;20073;-48
2023/04/06 07:06:39;;;;;;;10.25;6.20;;;;;;;10.73;46.82;96579.53;5035693;28;20084;-47
2023/04/06 07:09:07;;;;;;;13.60;6.65;;;;;;;11.27;46.08;96572.69;5037970;28;20084;-49
2023/04/06 07:11:37;;;;;;;13.82;7.50;;;;;;;11.42;45.30;96573.00;5046281;28;20085;-46
2023/04/06 07:14:05;;;;;;;8.60;5.93;;;;;;;11.19;45.30;96577.88;5027923;28;20095;-51
2023/04/06 07:16:35;;;;;;;12.40;6.35;;;;;;;12.36;44.17;96570.03;5032164;28;20393;-52
2023/04/06 07:19:03;;;;;;;10.32;7.05;;;;;;;11.57;44.37;96576.84;5031912;28;20085;-48
2023/04/06 07:21:31;;;;;;;10.52;6.53;;;;;;;12.66;43.49;96574.06;5033616;28;20596;-48
2023/04/06 07:24:00;;;;;;;10.95;6.85;;;;;;;12.44;43.16;96571.91;5030329;28;20080;-47
2023/04/06 07:26:28;;;;;;;10.30;6.75;;;;;;;12.81;43.80;96567.22;5030477;28;20085;-51
2023/04/06 07:28:58;;;;;;;9.90;6.72;;;;;;;12.82;43.28;96576.81;5030427;28;20080;-50
2023/04/06 07:31:27;;;;;;;9.25;6.35;;;;;;;12.78;44.02;96569.34;5033773;28;20088;-53
2023/04/06 07:33:55;;;;;;;12.15;6.97;;;;;;;12.51;43.31;96573.78;5034418;28;20087;-54
2023/04/06 07:36:24;;;;;;;9.23;6.45;;;;;;;13.12;42.57;96571.22;5037435;28;20540;-46
2023/04/06 07:38:52;;;;;;;9.93;6.40;;;;;;;13.42;41.73;96573.38;5030321;28;20108;-45
2023/04/06 07:41:21;;;;;;;11.70;6.97;;;;;;;13.65;40.41;96570.94;5032119;28;20544;-50
2023/04/06 07:43:49;;;;;;;9.23;6.18;;;;;;;13.63;40.99;96565.00;5034230;28;20077;-47
2023/04/06 07:46:19;;;;;;;9.68;5.82;;;;;;;13.49;41.12;96566.44;5037022;28;20092;-49
2023/04/06 07:48:47;;;;;;;8.15;5.80;;;;;;;13.57;40.19;96564.81;5034257;28;20707;-47
2023/04/06 07:51:17;;;;;;;9.95;6.43;;;;;;;14.26;38.95;96563.63;5037830;28;20084;-51
2023/04/06 07:53:46;;;;;;;10.70;6.28;;;;;;;13.54;40.48;96561.47;5030644;28;20084;-47
2023/04/06 07:56:15;;;;;;;9.15;6.13;;;;;;;13.25;40.92;96572.47;5037218;28;20076;-50
2023/04/06 07:58:43;;;;;;;11.48;6.38;;;;;;;14.94;38.30;96554.47;5029778;28;20167;-49
2023/04/06 08:01:12;;;;;;;10.43;6.05;;;;;;;14.43;39.50;96556.50;5037780;28;20076;-51
2023/04/06 08:03:42;;;;;;;11.02;5.85;;;;;;;15.47;37.96;96546.81;5036480;28;20153;-47
2023/04/06 08:06:11;;;;;;;8.82;5.78;;;;;;;15.53;36.68;96544.31;5034358;28;20073;-48
2023/04/06 08:08:40;;;;;;;9.23;6.20;;;;;;;15.48;36.95;96546.63;5029934;28;20171;-46
2023/04/06 08:11:08;;;;;;;10.43;5.72;;;;;;;16.20;35.01;96543.75;5030337;28;20077;-48
2023/04/06 08:13:36;;;;;;;9.15;5.53;;;;;;;15.79;35.16;96549.34;5032332;28;20081;-50
2023/04/06 08:16:06;;;;;;;8.75;5.35;;;;;;;16.30;34.69;96544.34;5029638;28;20081;-50
2023/04/06 08:18:35;;;;;;;8.27;5.85;;;;;;;15.57;35.81;96558.91;5028865;28;20089;-45
2023/04/06 08:21:05;;;;;;;11.93;5.88;;;;;;;16.29;34.60;96552.53;5035863;28;20068;-51
2023/04/06 08:23:33;;;;;;;10.18;6.32;;;;;;;14.91;34.91;96552.97;5031103;28;20069;-50
2023/04/06 08:26:02;;;;;;;8.85;6.05;;;;;;;15.18;35.53;96562.38;5069002;28;20080;-47
2023/04/06 08:28:30;;;;;;;9.38;5.40;;;;;;;15.70;34.17;96552.25;5033427;28;20065;-46
2023/04/06 08:30:59;;;;;;;9.50;4.97;;;;;;;15.42;33.75;96550.00;5030562;28;20068;-53
2023/04/06 08:33:27;;;;;;;10.35;5.80;;;;;;;15.84;34.01;96552.31;5029612;28;20481;-49
2023/04/06 08:35:56;;;;;;;9.18;5.47;;;;;;;15.79;33.48;96549.34;5032595;28;20081;-49
2023/04/06 08:38:26;;;;;;;10.88;6.00;;;;;;;16.75;33.12;96549.81;5031303;28;20089;-46
2023/04/06 08:40:54;;;;;;;8.35;5.30;;;;;;;17.08;32.37;96553.00;5031496;28;20551;-46
2023/04/06 08:43:23;;;;;;;11.57;6.00;;;;;;;17.15;31.96;96545.09;5044924;28;20092;-46
2023/04/06 08:45:52;;;;;;;7.22;4.82;;;;;;;17.32;31.25;96550.06;5033846;28;20091;-51
2023/04/06 08:48:22;;;;;;;9.18;5.85;;;;;;;17.90;30.66;96546.69;5028862;28;20073;-50
2023/04/06 08:50:50;;;;;;;9.30;5.37;;;;;;;18.60;29.58;96545.09;5028603;28;20579;-50
2023/04/06 08:53:19;;;;;;;11.13;5.18;;;;;;;18.38;30.38;96537.13;5029150;28;20511;-49
2023/04/06 08:55:52;;;;;;;8.27;5.40;;;;;;;18.73;29.29;96539.91;5030612;28;20096;-48
2023/04/06 08:58:22;;;;;;;10.00;5.80;;;;;;;19.07;28.69;96540.97;5034314;28;20092;-46
2023/04/06 09:01:08;;;;;;;10.25;5.65;;;;;;;18.45;29.48;96545.19;5035301;28;20559;-52
2023/04/06 09:03:39;;;;;;;9.40;5.97;;;;;;;18.09;29.75;96543.38;5035895;28;20545;-52
2023/04/06 09:06:09;;;;;;;9.02;5.82;;;;;;;18.51;29.19;96544.41;5032901;28;20073;-49
2023/04/06 09:08:40;;;;;;;10.95;6.25;;;;;;;18.83;28.97;96536.91;5033003;28;20092;-46
2023/04/06 09:11:10;;;;;;;9.57;4.85;;;;;;;18.06;28.43;96532.28;5027061;28;20077;-48
2023/04/06 09:13:48;;;;;;;8.52;5.68;;;;;;;18.20;29.65;96534.91;5029089;28;20187;-52
2023/04/06 09:16:17;;;;;;;8.25;5.10;;;;;;;17.75;29.79;96534.16;5029973;28;20532;-45
2023/04/06 09:18:46;;;;;;;8.52;5.55;;;;;;;16.61;30.26;96548.75;5033748;28;20084;-47
2023/04/06 09:21:17;;;;;;;11.38;5.13;;;;;;;17.17;29.59;96543.91;5035587;28;20081;-47
2023/04/06 09:23:47;;;;;;;10.65;5.35;;;;;;;18.39;28.49;96528.09;5028276;28;20081;-51
2023/04/06 09:26:18;;;;;;;9.48;6.25;;;;;;;17.91;28.78;96529.66;5023286;28;20081;-50
2023/04/06 09:28:48;;;;;;;8.73;5.38;;;;;;;17.78;29.02;96530.31;5033089;28;20077;-46
2023/04/06 09:31:18;;;;;;;9.73;6.22;;;;;;;18.57;28.29;96526.78;5028987;28;20084;-48
2023/04/06 09:33:46;;;;;;;26.48;13.90;;;;;;;17.88;28.11;96530.03;5039515;28;20464;-51
2023/04/06 09:36:15;;;;;;;14.82;10.43;;;;;;;18.08;28.68;96528.41;5033884;28;20077;-48
2023/04/06 09:38:55;;;;;;;9.38;5.45;;;;;;;18.69;27.77;96530.59;5039716;28;20092;-48
2023/04/06 09:41:25;;;;;;;12.10;6.43;;;;;;;18.65;27.63;96523.97;5038113;28;20081;-49
2023/04/06 09:44:02;;;;;;;;;;;;;;;18.64;27.36;96527.66;5041553;28;20092;-52
2023/04/06 09:46:32;;;;;;;8.13;6.03;;;;;;;18.32;27.95;96527.19;5031719;28;19964;-50
2023/04/06 09:49:19;;;;;;;8.52;5.70;;;;;;;18.86;28.21;96515.13;5032510;28;20105;-51
2023/04/06 09:51:52;;;;;;;10.20;5.85;;;;;;;19.01;28.89;96520.38;5032510;28;20089;-47
2023/04/06 09:54:23;;;;;;;9.48;6.07;;;;;;;18.96;27.97;96518.28;5032416;28;20089;-47
2023/04/06 09:56:55;;;;;;;;;;;;;;;19.05;28.16;96516.28;5040989;28;20085;-46
2023/04/06 09:59:30;;;;;;;10.70;6.40;;;;;;;19.14;27.09;96517.78;5036729;28;20400;-49
2023/04/06 10:01:59;;;;;;;8.35;5.40;;;;;;;18.98;26.82;96516.22;5034362;28;20088;-49
2023/04/06 10:04:37;;;;;;;8.52;4.93;;;;;;;19.85;27.13;96515.63;5038269;28;20859;-48
2023/04/06 10:07:06;;;;;;;10.80;6.28;;;;;;;19.57;26.56;96513.03;5035652;28;20584;-46
2023/04/06 10:09:36;;;;;;;11.07;6.82;;;;;;;18.79;27.58;96517.75;5037444;28;20076;-47
2023/04/06 10:12:07;;;;;;;11.70;6.38;;;;;;;18.72;27.51;96511.53;5041757;28;20081;-51
2023/04/06 10:14:36;;;;;;;;;;;;;;;19.54;26.94;96501.91;5035852;28;20088;-48
2023/04/06 10:17:05;;;;;;;9.50;6.32;;;;;;;19.68;26.25;96509.84;5038150;28;19957;-45
2023/04/06 10:19:40;;;;;;;9.15;5.82;;;;;;;19.50;26.64;96504.16;5041614;28;20081;-48
2023/04/06 10:22:09;;;;;;;10.32;6.68;;;;;;;18.67;27.38;96508.59;5033666;28;20492;-50
2023/04/06 10:24:38;;;;;;;9.73;6.60;;;;;;;18.89;26.97;96496.88;5041206;28;20170;-51
2023/04/06 10:27:10;;;;;;;9.70;6.63;;;;;;;19.34;26.92;96499.13;5035557;28;20084;-47
2023/04/06 10:29:44;;;;;;;11.93;6.75;;;;;;;18.15;27.21;96507.13;5037631;28;20073;-47
2023/04/06 10:32:13;;;;;;;9.15;6.70;;;;;;;19.16;27.06;96492.47;5039383;28;20065;-49
2023/04/06 10:34:42;;;;;;;11.93;7.18;;;;;;;20.03;26.07;96495.53;5044736;28;20084;-50
2023/04/06 10:37:14;;;;;;;13.38;8.88;;;;;;;19.09;26.90;96499.63;5037875;28;20081;-46
2023/04/06 10:39:54;;;;;;;11.75;7.43;;;;;;;19.10;27.08;96487.94;5028920;28;20065;-47
2023/04/06 10:42:26;;;;;;;11.82;7.47;;;;;;;18.46;27.12;96493.44;5038947;28;20441;-48
2023/04/06 10:44:55;;;;;;;11.70;7.72;;;;;;;19.37;28.14;96488.06;5036581;28;20084;-47
2023/04/06 10:47:23;;;;;;;13.75;7.32;;;;;;;19.48;26.67;96487.50;5044152;28;20092;-50
2023/04/06 10:49:51;;;;;;;10.82;7.38;;;;;;;19.77;26.22;96482.88;5031675;28;20068;-46
2023/04/06 10:52:20;;;;;;;9.50;6.60;;;;;;;20.33;25.67;96474.53;5034360;28;20165;-48
2023/04/06 10:54:48;;;;;;;9.45;6.57;;;;;;;20.63;25.82;96477.66;5030563;28;20095;-49
2023/04/06 10:57:30;;;;;;;8.43;5.38;;;;;;;19.81;29.35;96470.75;5041883;28;20052;-45
2023/04/06 10:59:59;;;;;;;10.50;7.00;;;;;;;18.30;29.34;96475.00;5034192;28;20084;-52
2023/04/06 11:02:27;;;;;;;10.68;7.53;;;;;;;18.82;29.49;96471.91;5040959;28;20084;-48
2023/04/06 11:04:57;;;;;;;9.52;6.63;;;;;;;18.87;28.05;96468.69;5034204;28;20072;-47
2023/04/06 11:07:26;;;;;;;15.10;7.60;;;;;;;18.18;28.56;96472.88;5035497;28;20064;-49
2023/04/06 11:09:55;;;;;;;10.18;7.72;;;;;;;18.92;27.79;96466.22;5034815;28;20084;-48
2023/04/06 11:12:43;;;;;;;11.05;7.43;;;;;;;19.51;26.64;96462.19;5031018;28;20470;-50
2023/04/06 11:15:11;;;;;;;13.73;7.65;;;;;;;20.14;27.26;96452.06;5044401;28;20076;-48
2023/04/06 11:17:40;;;;;;;11.23;7.30;;;;;;;19.40;26.14;96453.72;5037823;28;20076;-48
2023/04/06 11:20:12;;;;;;;12.20;7.47;;;;;;;20.05;26.56;96447.94;5035829;28;20131;-47
2023/04/06 11:22:49;;;;;;;12.25;7.85;;;;;;;19.56;25.46;96444.50;5033640;28;20462;-49
2023/04/06 11:25:18;;;;;;;11.93;7.78;;;;;;;20.09;25.52;96447.31;5021552;28;20448;-54
2023/04/06 11:27:48;;;;;;;13.48;8.45;;;;;;;21.00;26.17;96438.63;5034708;28;20088;-49
2023/04/06 11:30:17;;;;;;;11.55;7.80;;;;;;;20.77;26.10;96446.28;5038122;28;20065;-52
2023/04/06 11:32:47;;;;;;;13.47;9.63;;;;;;;20.54;24.75;96439.53;5037266;28;20091;-50
2023/04/06 11:35:21;;;;;;;10.68;8.18;;;;;;;22.26;24.11;96415.66;5032836;28;20073;-47
2023/04/06 11:37:50;;;;;;;11.40;7.75;;;;;;;21.78;24.15;96413.50;5034934;28;20083;-49
2023/04/06 11:40:22;;;;;;;10.55;7.28;;;;;;;20.42;27.39;96430.44;5033085;28;20533;-50